CDT,Max TemperatureF,Mean TemperatureF,Min TemperatureF,Max Dew PointF,MeanDew PointF,Min DewpointF,Max Humidity, Mean Humidity, Min Humidity, Max Sea Level PressureIn, Mean Sea Level PressureIn, Min Sea Level PressureIn, Max VisibilityMiles, Mean VisibilityMiles, Min VisibilityMiles, Max Wind SpeedMPH, Mean Wind SpeedMPH, Max Gust SpeedMPH,PrecipitationIn, CloudCover, Events, WindDirDegrees
2013-9-1,78,68,58,70,60,54,96,72,44,30.05,29.97,29.79,10,10,7,18,8,28,0.12,2,Rain-Thunderstorm,336
2013-9-2,76,62,50,59,53,46,100,78,36,30.14,30.08,30.05,10,8,0,7,1,,0.00,1,Fog,29
2013-9-3,84,67,50,68,58,48,100,82,50,30.09,30.05,30.00,10,8,4,16,3,21,0.00,0,Rain,177
2013-9-4,86,76,65,67,63,60,92,72,43,30.14,30.10,30.03,10,8,5,12,5,,0.00,3,Rain-Thunderstorm,165
2013-9-5,85,76,68,71,64,58,90,73,41,30.19,30.14,30.08,10,10,10,18,9,29,0.01,3,Rain-Thunderstorm,155
2013-9-6,93,78,64,69,65,61,90,70,36,30.09,29.98,29.88,10,10,7,20,8,25,0.01,0,,182
2013-9-7,85,75,65,74,68,64,97,84,61,29.96,29.92,29.85,10,6,2,12,4,16,0.01,0,Rain-Thunderstorm,52
2013-9-8,88,76,64,75,70,64,99,84,57,29.96,29.89,29.79,10,5,0,14,4,17,0.00,3,Fog,121
2013-9-9,96,82,67,72,63,55,93,62,26,29.88,29.78,29.74,10,8,5,18,6,24,0.00,0,,205
2013-9-10,84,74,63,67,63,56,96,74,40,30.07,29.97,29.88,10,9,5,10,3,,0.00,2,,14
2013-9-11,84,71,59,65,60,53,97,73,35,30.15,30.12,30.06,10,8,5,7,1,,0.00,1,Thunderstorm,350
2013-9-12,79,66,52,58,49,38,94,65,23,30.29,30.22,30.15,10,9,5,14,3,16,0.00,0,,25
2013-9-13,76,59,42,52,47,40,95,68,30,30.25,30.18,30.07,10,10,5,10,2,,0.02,0,,146
2013-9-14,75,63,52,58,52,49,89,68,41,30.07,29.96,29.85,10,10,10,20,8,25,0.00,4,,179
2013-9-15,71,66,61,60,55,51,87,71,50,30.29,30.07,29.84,10,10,10,17,9,24,0.00,7,,12
2013-9-16,70,62,54,55,52,49,92,72,48,30.34,30.27,30.19,10,10,10,14,5,18,0.00,6,,119
2013-9-17,71,64,57,67,60,53,97,91,78,30.18,30.01,29.84,10,6,1,17,10,21,0.00,8,Rain,157
2013-9-18,91,79,68,68,66,64,95,71,40,29.84,29.73,29.66,10,8,3,20,12,26,0.00,3,,177
2013-9-19,78,66,53,66,56,43,91,65,34,30.03,29.83,29.66,10,10,7,26,11,38,0.02,4,Rain-Thunderstorm,293
2013-9-20,69,54,39,49,42,35,93,65,29,30.09,30.04,29.99,10,10,7,20,7,24,0.00,0,,308
2013-9-21,79,56,34,50,41,33,95,62,27,30.03,29.95,29.83,10,10,10,15,5,20,0.00,0,,160
2013-9-22,84,69,54,53,48,42,91,54,23,29.85,29.80,29.74,10,10,10,25,11,32,0.00,0,,176
2013-9-23,81,68,56,55,47,42,82,52,25,29.80,29.76,29.70,10,10,7,25,14,33,0.06,1,Rain,149
2013-9-24,73,63,52,59,56,52,96,82,50,29.93,29.88,29.78,10,9,5,13,6,20,0.32,4,Rain,24
2013-9-25,80,63,47,61,53,47,98,72,39,29.93,29.84,29.72,10,7,0,21,5,28,0.00,2,Fog,152
2013-9-26,90,76,62,59,56,50,85,56,26,29.77,29.73,29.69,10,10,10,28,17,36,0.00,0,,156
2013-9-27,88,78,69,59,56,53,70,48,31,29.78,29.75,29.69,10,10,10,28,18,34,0.00,1,,168
2013-9-28,75,62,46,57,45,34,94,68,31,30.03,29.90,29.65,10,9,5,23,13,30,0.48,3,Rain-Thunderstorm,291
2013-9-29,81,63,45,42,39,34,84,48,19,30.03,29.92,29.81,10,10,10,22,9,30,0.00,0,,199
2013-9-30,85,70,57,50,44,39,61,43,20,29.82,29.72,29.65,10,10,2,17,12,23,0.00,0,,204